Philomene P. Perera — WDC3201 — position and weather

sailwx.info

Track history (hours):
 
Tides and Currents Weather Stations Pressure Air Temp Water Temp Dewpoint Dewpoint Depression Visibility Wind Speed Wind Dir Waves Ship Positions

Philomene P. Perera

Owner: Settoon Towing, L.L.C., Houma, LA. More information available from US FCC via Universal Licensing System and Coast Guard Vessel Documentation Center.

Last reported at 2018-Jun-19 21:14 UTC. Time now 2018-Jun-20 20:59 UTC.
Position N 29°32' W 090°51'.

Length 16 m; draft 5 m.

Type: Towing. MMSI: 367003820.

Date/timePositionNaut miles runAvg speedWind from/ knotsBaromVisibWave heightAir tempDewpointWater temp
2018-Jun-19 21:14N 29°32' W 090°51'1 6.3
2018-Jun-19 21:00N 29°32' W 090°50'3 6.2
2018-Jun-19 20:30N 29°32' W 090°46'3 5.5
2018-Jun-19 20:00N 29°34' W 090°44'1 2.3
2018-Jun-19 19:30N 29°35' W 090°43'0 0.8
2018-Jun-19 19:00N 29°35' W 090°43'3 4.9
2018-Jun-19 18:29N 29°32' W 090°42'3 6.2
2018-Jun-19 18:00N 29°29' W 090°43'3 6.1
2018-Jun-19 17:30N 29°26' W 090°43'1 0.0
2018-Jun-18 15:58N 29°25' W 090°43'3 6.4
2018-Jun-18 15:30N 29°28' W 090°43'4 7.9
2018-Jun-18 15:01N 29°32' W 090°42'2 4.8
2018-Jun-18 14:31N 29°34' W 090°44'3 6.4
2018-Jun-18 14:00N 29°32' W 090°47'4 7.7
2018-Jun-18 13:30N 29°32' W 090°51'  
2018-Jun-16 05:35N 29°34' W 090°56'1 6.3
2018-Jun-16 05:24N 29°33' W 090°55'3 6.0
2018-Jun-16 04:54N 29°32' W 090°52'2 6.1
2018-Jun-16 04:30N 29°32' W 090°49'3 5.7
2018-Jun-16 04:00N 29°32' W 090°46'3 5.2
2018-Jun-16 03:30N 29°34' W 090°43'2 4.3
2018-Jun-16 03:01N 29°36' W 090°43'2 4.7
2018-Jun-16 02:30N 29°36' W 090°40'3 5.5
2018-Jun-16 01:56N 29°35' W 090°37'2 5.6
2018-Jun-16 01:30N 29°34' W 090°34'3 5.9
2018-Jun-16 01:00N 29°34' W 090°30'3 0.1
2018-Jun-14 13:27N 29°33' W 090°27'3 7.6
2018-Jun-14 13:00N 29°34' W 090°31'4 7.4
2018-Jun-14 12:30N 29°34' W 090°35'3 6.8
2018-Jun-14 12:00N 29°35' W 090°39'3 6.9
2018-Jun-14 11:30N 29°37' W 090°42'2 4.2
2018-Jun-14 11:00N 29°35' W 090°43'0 0.0
2018-Jun-14 10:30N 29°35' W 090°43'0 0.0
2018-Jun-14 10:00N 29°35' W 090°43'0 0.0
2018-Jun-14 09:30N 29°35' W 090°43'0 0.0
2018-Jun-14 09:00N 29°35' W 090°43'0 0.0
2018-Jun-14 08:30N 29°35' W 090°43'0 0.0
2018-Jun-14 08:00N 29°35' W 090°43'0 0.0
2018-Jun-14 07:30N 29°35' W 090°43'0 0.0
2018-Jun-14 07:00N 29°35' W 090°43'0 0.0
2018-Jun-14 06:30N 29°35' W 090°43'0 0.0
2018-Jun-14 06:00N 29°35' W 090°43'0 0.0
2018-Jun-14 05:30N 29°35' W 090°43'0 0.0
2018-Jun-14 05:00N 29°35' W 090°43'0 0.0
2018-Jun-14 04:30N 29°35' W 090°43'0 0.0
2018-Jun-14 04:00N 29°35' W 090°43'0 0.0
2018-Jun-14 03:30N 29°35' W 090°43'0 0.0
2018-Jun-14 03:00N 29°35' W 090°43'1 2.7
2018-Jun-14 02:30N 29°34' W 090°44'4 7.0
2018-Jun-14 02:00N 29°32' W 090°48'5 7.8
2018-Jun-14 01:24N 29°32' W 090°53'5 0.3
2018-Jun-13 05:33N 29°36' W 090°58'3 6.0
2018-Jun-13 05:08N 29°34' W 090°56'1 6.3
2018-Jun-13 05:00N 29°33' W 090°55'3 5.9
2018-Jun-13 04:27N 29°32' W 090°52'3 6.1
2018-Jun-13 04:00N 29°32' W 090°49'3 5.5
2018-Jun-13 03:30N 29°33' W 090°45'3 5.3
2018-Jun-13 03:00N 29°34' W 090°43'1 1.2
2018-Jun-13 02:30N 29°35' W 090°43'0 0.0
2018-Jun-13 02:00N 29°35' W 090°43'0 0.9
2018-Jun-13 01:30N 29°35' W 090°43'2 3.9
2018-Jun-13 01:00N 29°36' W 090°41'3 5.8
2018-Jun-13 00:30N 29°35' W 090°38'3 5.6
2018-Jun-13 00:00N 29°34' W 090°35'  
2018-Jun-10 13:38N 29°34' W 090°28'1 7.3
2018-Jun-10 13:29N 29°34' W 090°30'3 7.2
2018-Jun-10 13:00N 29°34' W 090°34'3 6.9
2018-Jun-10 12:31N 29°35' W 090°37'4 7.2
2018-Jun-10 12:01N 29°36' W 090°41'2 4.5
2018-Jun-10 11:31N 29°35' W 090°43'0 0.0
2018-Jun-10 11:01N 29°35' W 090°43'0 0.0
2018-Jun-10 10:31N 29°35' W 090°43'0 0.0
2018-Jun-10 10:00N 29°35' W 090°43'0 0.0
2018-Jun-10 09:31N 29°35' W 090°43'0 0.0
2018-Jun-10 09:01N 29°35' W 090°43'0 0.0
2018-Jun-10 08:30N 29°35' W 090°43'0 0.0
2018-Jun-10 08:01N 29°35' W 090°43'0 0.0
2018-Jun-10 07:31N 29°35' W 090°43'0 0.0
2018-Jun-10 07:00N 29°35' W 090°43'0 0.0
2018-Jun-10 06:31N 29°35' W 090°43'0 0.0
2018-Jun-10 06:01N 29°35' W 090°43'0 0.0
2018-Jun-10 05:31N 29°35' W 090°43'0 0.0
2018-Jun-10 05:01N 29°35' W 090°43'0 0.0
2018-Jun-10 04:31N 29°35' W 090°43'0 0.0
2018-Jun-10 04:01N 29°35' W 090°43'0 0.0
2018-Jun-10 03:31N 29°35' W 090°43'0 0.0
2018-Jun-10 03:01N 29°35' W 090°43'0 0.0
2018-Jun-10 02:31N 29°35' W 090°43'0 0.0
2018-Jun-10 02:01N 29°35' W 090°43'0 0.2
2018-Jun-10 01:31N 29°35' W 090°43'0 0.3
2018-Jun-10 00:58N 29°35' W 090°43'2 4.8
2018-Jun-10 00:30N 29°33' W 090°45'3 6.4
2018-Jun-10 00:01N 29°32' W 090°48'  
Track history (hours):
 
Tides and Currents Weather Stations Pressure Air Temp Water Temp Dewpoint Dewpoint Depression Visibility Wind Speed Wind Dir Waves Ship Positions

Philomene P. Perera

Owner: Settoon Towing, L.L.C., Houma, LA. More information available from US FCC via Universal Licensing System and Coast Guard Vessel Documentation Center.

Last reported at 2018-Jun-19 21:14 UTC. Time now 2018-Jun-20 20:59 UTC.
Position N 29°32' W 090°51'.

Length 16 m; draft 5 m.

Type: Towing. MMSI: 367003820.

Date/timePositionNaut miles runAvg speedWind from/ knotsBaromVisibWave heightAir tempDewpointWater temp
2018-Jun-19 21:14N 29°32' W 090°51'1 6.3
2018-Jun-19 21:00N 29°32' W 090°50'3 6.2
2018-Jun-19 20:30N 29°32' W 090°46'3 5.5
2018-Jun-19 20:00N 29°34' W 090°44'1 2.3
2018-Jun-19 19:30N 29°35' W 090°43'0 0.8
2018-Jun-19 19:00N 29°35' W 090°43'3 4.9
2018-Jun-19 18:29N 29°32' W 090°42'3 6.2
2018-Jun-19 18:00N 29°29' W 090°43'3 6.1
2018-Jun-19 17:30N 29°26' W 090°43'1 0.0
2018-Jun-18 15:58N 29°25' W 090°43'3 6.4
2018-Jun-18 15:30N 29°28' W 090°43'4 7.9
2018-Jun-18 15:01N 29°32' W 090°42'2 4.8
2018-Jun-18 14:31N 29°34' W 090°44'3 6.4
2018-Jun-18 14:00N 29°32' W 090°47'4 7.7
2018-Jun-18 13:30N 29°32' W 090°51'  
2018-Jun-16 05:35N 29°34' W 090°56'1 6.3
2018-Jun-16 05:24N 29°33' W 090°55'3 6.0
2018-Jun-16 04:54N 29°32' W 090°52'2 6.1
2018-Jun-16 04:30N 29°32' W 090°49'3 5.7
2018-Jun-16 04:00N 29°32' W 090°46'3 5.2
2018-Jun-16 03:30N 29°34' W 090°43'2 4.3
2018-Jun-16 03:01N 29°36' W 090°43'2 4.7
2018-Jun-16 02:30N 29°36' W 090°40'3 5.5
2018-Jun-16 01:56N 29°35' W 090°37'2 5.6
2018-Jun-16 01:30N 29°34' W 090°34'3 5.9
2018-Jun-16 01:00N 29°34' W 090°30'3 0.1
2018-Jun-14 13:27N 29°33' W 090°27'3 7.6
2018-Jun-14 13:00N 29°34' W 090°31'4 7.4
2018-Jun-14 12:30N 29°34' W 090°35'3 6.8
2018-Jun-14 12:00N 29°35' W 090°39'3 6.9
2018-Jun-14 11:30N 29°37' W 090°42'2 4.2
2018-Jun-14 11:00N 29°35' W 090°43'0 0.0
2018-Jun-14 10:30N 29°35' W 090°43'0 0.0
2018-Jun-14 10:00N 29°35' W 090°43'0 0.0
2018-Jun-14 09:30N 29°35' W 090°43'0 0.0
2018-Jun-14 09:00N 29°35' W 090°43'0 0.0
2018-Jun-14 08:30N 29°35' W 090°43'0 0.0
2018-Jun-14 08:00N 29°35' W 090°43'0 0.0
2018-Jun-14 07:30N 29°35' W 090°43'0 0.0
2018-Jun-14 07:00N 29°35' W 090°43'0 0.0
2018-Jun-14 06:30N 29°35' W 090°43'0 0.0
2018-Jun-14 06:00N 29°35' W 090°43'0 0.0
2018-Jun-14 05:30N 29°35' W 090°43'0 0.0
2018-Jun-14 05:00N 29°35' W 090°43'0 0.0
2018-Jun-14 04:30N 29°35' W 090°43'0 0.0
2018-Jun-14 04:00N 29°35' W 090°43'0 0.0
2018-Jun-14 03:30N 29°35' W 090°43'0 0.0
2018-Jun-14 03:00N 29°35' W 090°43'1 2.7
2018-Jun-14 02:30N 29°34' W 090°44'4 7.0
2018-Jun-14 02:00N 29°32' W 090°48'5 7.8
2018-Jun-14 01:24N 29°32' W 090°53'5 0.3
2018-Jun-13 05:33N 29°36' W 090°58'3 6.0
2018-Jun-13 05:08N 29°34' W 090°56'1 6.3
2018-Jun-13 05:00N 29°33' W 090°55'3 5.9
2018-Jun-13 04:27N 29°32' W 090°52'3 6.1
2018-Jun-13 04:00N 29°32' W 090°49'3 5.5
2018-Jun-13 03:30N 29°33' W 090°45'3 5.3
2018-Jun-13 03:00N 29°34' W 090°43'1 1.2
2018-Jun-13 02:30N 29°35' W 090°43'0 0.0
2018-Jun-13 02:00N 29°35' W 090°43'0 0.9
2018-Jun-13 01:30N 29°35' W 090°43'2 3.9
2018-Jun-13 01:00N 29°36' W 090°41'3 5.8
2018-Jun-13 00:30N 29°35' W 090°38'3 5.6
2018-Jun-13 00:00N 29°34' W 090°35'  
2018-Jun-10 13:38N 29°34' W 090°28'1 7.3
2018-Jun-10 13:29N 29°34' W 090°30'3 7.2
2018-Jun-10 13:00N 29°34' W 090°34'3 6.9
2018-Jun-10 12:31N 29°35' W 090°37'4 7.2
2018-Jun-10 12:01N 29°36' W 090°41'2 4.5
2018-Jun-10 11:31N 29°35' W 090°43'0 0.0
2018-Jun-10 11:01N 29°35' W 090°43'0 0.0
2018-Jun-10 10:31N 29°35' W 090°43'0 0.0
2018-Jun-10 10:00N 29°35' W 090°43'0 0.0
2018-Jun-10 09:31N 29°35' W 090°43'0 0.0
2018-Jun-10 09:01N 29°35' W 090°43'0 0.0
2018-Jun-10 08:30N 29°35' W 090°43'0 0.0
2018-Jun-10 08:01N 29°35' W 090°43'0 0.0
2018-Jun-10 07:31N 29°35' W 090°43'0 0.0
2018-Jun-10 07:00N 29°35' W 090°43'0 0.0
2018-Jun-10 06:31N 29°35' W 090°43'0 0.0
2018-Jun-10 06:01N 29°35' W 090°43'0 0.0
2018-Jun-10 05:31N 29°35' W 090°43'0 0.0
2018-Jun-10 05:01N 29°35' W 090°43'0 0.0
2018-Jun-10 04:31N 29°35' W 090°43'0 0.0
2018-Jun-10 04:01N 29°35' W 090°43'0 0.0
2018-Jun-10 03:31N 29°35' W 090°43'0 0.0
2018-Jun-10 03:01N 29°35' W 090°43'0 0.0
2018-Jun-10 02:31N 29°35' W 090°43'0 0.0
2018-Jun-10 02:01N 29°35' W 090°43'0 0.2
2018-Jun-10 01:31N 29°35' W 090°43'0 0.3
2018-Jun-10 00:58N 29°35' W 090°43'2 4.8
2018-Jun-10 00:30N 29°33' W 090°45'3 6.4
2018-Jun-10 00:01N 29°32' W 090°48'  

Dump ship's entire track history